createdAt,value
2023-08-23T00:00:18.392Z,4.47
2023-08-23T00:02:45.947Z,3.70
2023-08-23T00:05:13.491Z,5.27
2023-08-23T00:07:41.048Z,5.17
2023-08-23T00:10:09.370Z,6.50
2023-08-23T00:12:36.924Z,5.07
2023-08-23T00:15:04.855Z,4.30
2023-08-23T00:17:32.487Z,7.00
2023-08-23T00:20:00.217Z,5.43
2023-08-23T00:22:27.828Z,4.83
2023-08-23T00:24:55.412Z,6.60
2023-08-23T00:27:23.276Z,7.27
2023-08-23T00:29:50.876Z,4.40
2023-08-23T00:32:18.454Z,5.10
2023-08-23T00:34:46.000Z,6.33
2023-08-23T00:37:13.573Z,4.90
2023-08-23T00:39:41.105Z,6.50
2023-08-23T00:42:08.699Z,5.77
2023-08-23T00:44:36.213Z,6.33
2023-08-23T00:47:04.110Z,6.53
2023-08-23T00:49:35.664Z,5.87
2023-08-23T00:52:06.758Z,7.07
2023-08-23T00:54:34.909Z,6.90
2023-08-23T00:57:03.279Z,9.00
2023-08-23T00:59:34.417Z,7.77
2023-08-23T01:02:01.955Z,7.33
2023-08-23T01:04:29.645Z,6.50
2023-08-23T01:07:21.620Z,7.83
2023-08-23T01:10:16.875Z,5.60
2023-08-23T01:13:03.978Z,6.60
2023-08-23T01:15:33.925Z,5.90
2023-08-23T01:18:03.579Z,6.83
2023-08-23T01:20:32.066Z,6.67
2023-08-23T01:23:15.854Z,9.07
2023-08-23T01:25:51.639Z,5.80
2023-08-23T01:28:21.057Z,6.37
2023-08-23T01:30:50.080Z,6.43
2023-08-23T01:33:50.035Z,7.27
2023-08-23T01:36:23.765Z,5.80
2023-08-23T01:38:54.024Z,6.20
2023-08-23T01:41:21.867Z,8.13
2023-08-23T01:43:49.650Z,7.17
2023-08-23T01:46:17.243Z,6.87
2023-08-23T01:48:44.892Z,7.03
2023-08-23T01:51:12.501Z,6.70
2023-08-23T01:53:40.067Z,7.20
2023-08-23T01:56:07.648Z,9.90
2023-08-23T01:58:35.168Z,6.17
2023-08-23T02:01:02.747Z,6.10
2023-08-23T02:03:30.385Z,5.90
2023-08-23T02:05:58.084Z,4.67
2023-08-23T02:08:26.552Z,5.40
2023-08-23T02:10:54.214Z,6.67
2023-08-23T02:13:21.748Z,7.27
2023-08-23T02:15:49.452Z,6.03
2023-08-23T02:18:17.917Z,5.33
2023-08-23T02:20:45.722Z,7.63
2023-08-23T02:23:13.255Z,6.43
2023-08-23T02:25:42.765Z,7.97
2023-08-23T02:28:10.293Z,5.40
2023-08-23T02:30:38.421Z,6.33
2023-08-23T02:33:06.191Z,6.03
2023-08-23T02:35:33.846Z,5.17
2023-08-23T02:38:03.016Z,9.73
2023-08-23T02:40:30.566Z,7.60
2023-08-23T02:42:58.194Z,6.03
2023-08-23T02:45:25.705Z,5.97
2023-08-23T02:47:53.279Z,6.33
2023-08-23T02:50:20.828Z,5.17
2023-08-23T02:52:48.350Z,5.37
2023-08-23T02:55:15.986Z,5.17
2023-08-23T02:57:43.485Z,6.93
2023-08-23T03:00:12.048Z,5.10
2023-08-23T03:02:39.646Z,5.83
2023-08-23T03:05:07.886Z,6.20
2023-08-23T03:07:36.028Z,6.13
2023-08-23T03:10:03.803Z,5.67
2023-08-23T03:12:31.305Z,5.50
2023-08-23T03:14:58.949Z,5.07
2023-08-23T03:17:26.508Z,6.43
2023-08-23T03:19:54.021Z,6.73
2023-08-23T03:22:21.560Z,4.57
2023-08-23T03:24:49.137Z,5.57
2023-08-23T03:27:16.958Z,4.67
2023-08-23T03:29:47.888Z,5.93
2023-08-23T03:32:18.868Z,5.17
2023-08-23T03:34:46.923Z,4.47
2023-08-23T03:37:14.672Z,6.93
2023-08-23T03:39:42.243Z,6.90
2023-08-23T03:42:09.757Z,4.43
2023-08-23T03:44:37.431Z,6.47
2023-08-23T03:47:05.163Z,5.93
2023-08-23T03:49:32.719Z,5.13
2023-08-23T03:52:00.241Z,7.50
2023-08-23T03:54:27.816Z,10.57
2023-08-23T03:56:55.372Z,6.90
2023-08-23T03:59:22.951Z,7.27
2023-08-23T04:01:50.648Z,7.50
2023-08-23T04:04:18.279Z,7.57
2023-08-23T04:06:46.351Z,6.60
2023-08-23T04:09:14.096Z,8.37
2023-08-23T04:11:42.228Z,9.13
2023-08-23T04:14:09.830Z,9.77
2023-08-23T04:16:37.398Z,8.17
2023-08-23T04:19:05.029Z,8.53
2023-08-23T04:21:32.622Z,8.30
2023-08-23T04:24:01.432Z,8.87
2023-08-23T04:26:29.001Z,8.67
2023-08-23T04:28:56.542Z,8.97
2023-08-23T04:31:24.182Z,8.37
2023-08-23T04:33:51.752Z,8.53
2023-08-23T04:36:19.252Z,7.70
2023-08-23T04:38:46.776Z,7.17
2023-08-23T04:41:14.455Z,8.67
2023-08-23T04:43:41.946Z,9.00
2023-08-23T04:46:09.576Z,8.73
2023-08-23T04:48:37.213Z,8.83
2023-08-23T04:51:06.660Z,11.83
2023-08-23T04:53:34.306Z,7.77
2023-08-23T04:56:01.904Z,7.67
2023-08-23T04:58:32.510Z,8.70
2023-08-23T05:01:05.517Z,7.23
2023-08-23T05:03:34.848Z,7.13
2023-08-23T05:06:03.558Z,10.17
2023-08-23T05:08:32.104Z,9.03
2023-08-23T05:10:59.680Z,7.57
2023-08-23T05:13:27.255Z,8.77
2023-08-23T05:15:58.867Z,9.27
2023-08-23T05:18:26.602Z,8.17
2023-08-23T05:21:00.873Z,8.73
2023-08-23T05:23:28.556Z,9.80
2023-08-23T05:25:57.490Z,7.13
2023-08-23T05:28:25.025Z,8.50
2023-08-23T05:30:52.666Z,10.80
2023-08-23T05:33:20.352Z,9.07
2023-08-23T05:35:48.418Z,8.77
2023-08-23T05:38:16.146Z,9.57
2023-08-23T05:40:43.700Z,8.27
2023-08-23T05:43:11.772Z,8.27
2023-08-23T05:45:39.367Z,7.93
2023-08-23T05:48:07.498Z,7.97
2023-08-23T05:50:35.272Z,10.50
2023-08-23T05:53:05.731Z,7.73
2023-08-23T05:55:33.366Z,8.83
2023-08-23T05:58:00.895Z,7.90
2023-08-23T06:00:28.472Z,5.77
2023-08-23T06:02:56.096Z,5.97
2023-08-23T06:05:23.821Z,7.77
2023-08-23T06:07:51.403Z,6.07
2023-08-23T06:10:18.919Z,7.17
2023-08-23T06:12:46.415Z,5.50
2023-08-23T06:15:14.013Z,6.73
2023-08-23T06:17:41.634Z,5.47
2023-08-23T06:20:09.870Z,5.90
2023-08-23T06:22:38.360Z,6.60
2023-08-23T06:25:06.836Z,7.33
2023-08-23T06:27:34.309Z,8.57
2023-08-23T06:30:03.668Z,7.27
2023-08-23T06:32:31.359Z,5.70
2023-08-23T06:34:59.046Z,8.33
2023-08-23T06:37:26.536Z,5.53
2023-08-23T06:39:54.059Z,4.80
2023-08-23T06:42:21.620Z,6.47
2023-08-23T06:44:49.097Z,6.23
2023-08-23T06:47:16.775Z,5.63
2023-08-23T06:49:44.421Z,5.23
2023-08-23T06:52:11.992Z,5.37
2023-08-23T06:54:39.539Z,4.90
2023-08-23T06:57:07.158Z,5.53
2023-08-23T06:59:34.734Z,6.37
2023-08-23T07:02:02.595Z,4.83
2023-08-23T07:04:30.234Z,7.37
2023-08-23T07:06:58.766Z,5.87
2023-08-23T07:09:26.331Z,7.03
2023-08-23T07:11:53.838Z,3.20
2023-08-23T07:14:21.368Z,4.37
2023-08-23T07:16:48.887Z,5.95
2023-08-23T07:19:16.403Z,3.73
2023-08-23T07:21:43.899Z,3.63
2023-08-23T07:24:12.142Z,5.60
2023-08-23T07:26:39.728Z,3.65
2023-08-23T07:29:07.230Z,5.40
2023-08-23T07:31:34.768Z,4.18
2023-08-23T07:34:02.349Z,2.47
2023-08-23T07:36:31.270Z,4.97
2023-08-23T07:38:59.094Z,3.72
2023-08-23T07:41:26.649Z,10.25
2023-08-23T07:43:54.183Z,7.13
2023-08-23T07:46:21.832Z,3.92
2023-08-23T07:48:49.401Z,3.65
2023-08-23T07:51:16.940Z,3.72
2023-08-23T07:53:44.916Z,5.13
2023-08-23T07:56:15.143Z,3.75
2023-08-23T07:58:43.240Z,5.22
2023-08-23T08:01:10.840Z,4.22
2023-08-23T08:03:38.423Z,7.47
2023-08-23T08:06:06.377Z,6.07
2023-08-23T08:08:34.016Z,5.30
2023-08-23T08:11:01.605Z,5.72
2023-08-23T08:13:29.118Z,3.97
2023-08-23T08:15:57.077Z,10.48
2023-08-23T08:18:24.785Z,3.65
2023-08-23T08:20:52.307Z,2.72
2023-08-23T08:23:20.571Z,2.75
2023-08-23T08:25:48.251Z,3.63
2023-08-23T08:28:15.797Z,2.10
2023-08-23T08:30:43.356Z,3.42
2023-08-23T08:33:10.950Z,3.75
2023-08-23T08:35:38.542Z,3.70
2023-08-23T08:38:07.647Z,2.60
2023-08-23T08:40:40.741Z,4.28
2023-08-23T08:43:10.649Z,3.53
2023-08-23T08:45:39.555Z,2.75
2023-08-23T08:48:07.797Z,3.03
2023-08-23T08:50:35.389Z,2.20
2023-08-23T08:53:10.334Z,1.92
2023-08-23T08:55:38.267Z,3.30
2023-08-23T08:58:07.239Z,2.75
2023-08-23T09:00:36.403Z,5.00
2023-08-23T09:03:04.447Z,3.20
2023-08-23T09:05:33.183Z,3.05
2023-08-23T09:08:00.742Z,2.90
2023-08-23T09:10:28.296Z,3.40
2023-08-23T09:12:56.361Z,1.70
2023-08-23T09:15:25.540Z,3.63
2023-08-23T09:17:55.538Z,3.78
2023-08-23T09:20:24.333Z,2.85
2023-08-23T09:22:56.879Z,3.30
2023-08-23T09:25:26.067Z,3.92
2023-08-23T09:27:57.626Z,3.13
2023-08-23T09:30:25.526Z,2.58
2023-08-23T09:32:53.165Z,3.85
2023-08-23T09:35:21.018Z,3.83
2023-08-23T09:37:50.285Z,2.97
2023-08-23T09:40:26.418Z,2.17
2023-08-23T09:42:58.282Z,3.03
2023-08-23T09:45:28.364Z,1.60
2023-08-23T09:48:01.758Z,3.05
2023-08-23T09:50:29.681Z,1.90
2023-08-23T09:53:07.998Z,1.85
2023-08-23T09:55:36.390Z,1.90
2023-08-23T09:58:05.035Z,2.05
2023-08-23T10:00:32.743Z,1.63
2023-08-23T10:03:01.713Z,3.88
2023-08-23T10:05:30.456Z,2.97
2023-08-23T10:07:58.929Z,3.17
2023-08-23T10:10:27.349Z,2.08
2023-08-23T10:13:01.002Z,2.05
2023-08-23T10:15:34.644Z,2.85
2023-08-23T10:18:05.517Z,2.42
2023-08-23T10:20:38.298Z,2.05
2023-08-23T10:23:34.492Z,2.08
2023-08-23T10:26:03.588Z,1.73
2023-08-23T10:28:32.046Z,2.45
2023-08-23T10:31:11.341Z,4.55
2023-08-23T10:33:49.931Z,3.55
2023-08-23T10:36:25.785Z,1.80
2023-08-23T10:38:58.661Z,2.25
2023-08-23T10:41:27.108Z,4.15
2023-08-23T10:43:55.470Z,1.73
2023-08-23T10:46:26.137Z,2.78
2023-08-23T10:48:54.717Z,2.95
2023-08-23T10:51:22.494Z,2.63
2023-08-23T10:53:50.046Z,2.53
2023-08-23T10:56:19.238Z,1.67
2023-08-23T10:58:46.870Z,1.70
2023-08-23T11:01:14.487Z,2.65
2023-08-23T11:03:42.502Z,1.92
2023-08-23T11:06:10.194Z,3.03
2023-08-23T11:08:37.968Z,1.80
2023-08-23T11:11:07.407Z,1.48
2023-08-23T11:13:35.054Z,1.75
2023-08-23T11:16:02.669Z,1.63
2023-08-23T11:18:30.397Z,1.60
2023-08-23T11:20:59.587Z,1.33
2023-08-23T11:23:27.121Z,2.13
2023-08-23T11:25:54.864Z,2.70
2023-08-23T11:28:22.484Z,1.58
2023-08-23T11:30:50.729Z,1.52
2023-08-23T11:33:18.437Z,1.67
2023-08-23T11:35:46.335Z,2.35
2023-08-23T11:38:13.866Z,1.33
2023-08-23T11:40:41.506Z,2.33
2023-08-23T11:45:40.072Z,2.47
2023-08-23T11:48:08.577Z,1.65
2023-08-23T11:50:36.254Z,2.85
2023-08-23T11:53:06.408Z,2.53
2023-08-23T11:55:36.114Z,1.67
2023-08-23T11:58:04.881Z,1.30
2023-08-23T12:00:32.782Z,1.90
2023-08-23T12:03:01.057Z,2.25
2023-08-23T12:05:28.712Z,1.20
2023-08-23T12:07:56.471Z,1.42
2023-08-23T12:10:26.184Z,1.98
2023-08-23T12:12:53.701Z,1.38
2023-08-23T12:15:21.431Z,1.00
2023-08-23T12:17:50.080Z,1.92
2023-08-23T12:20:17.978Z,1.67
2023-08-23T12:22:47.348Z,1.10
2023-08-23T12:25:15.652Z,1.40
2023-08-23T12:27:43.441Z,1.83
2023-08-23T12:30:11.326Z,1.30
2023-08-23T12:32:39.049Z,2.15
2023-08-23T12:35:08.223Z,1.38
2023-08-23T12:37:35.851Z,1.55
2023-08-23T12:40:06.607Z,3.15
2023-08-23T12:42:34.228Z,3.45
2023-08-23T12:45:02.384Z,2.05
2023-08-23T12:47:30.363Z,2.15
2023-08-23T12:49:58.003Z,1.63
2023-08-23T12:52:26.272Z,1.20
2023-08-23T12:54:53.828Z,2.72
2023-08-23T12:57:21.437Z,1.85
2023-08-23T12:59:49.055Z,1.50
2023-08-23T13:02:16.810Z,2.83
2023-08-23T13:04:44.396Z,2.55
2023-08-23T13:07:11.939Z,1.92
2023-08-23T13:09:39.419Z,1.20
2023-08-23T13:12:07.641Z,4.22
2023-08-23T13:14:35.525Z,4.82
2023-08-23T13:17:03.113Z,1.60
2023-08-23T13:19:31.824Z,1.65
2023-08-23T13:21:59.428Z,2.05
2023-08-23T13:24:27.217Z,4.10
2023-08-23T13:26:54.755Z,1.02
2023-08-23T13:29:22.474Z,5.65
2023-08-23T13:31:50.025Z,2.30
2023-08-23T13:34:17.631Z,2.47
2023-08-23T13:36:45.527Z,1.50
2023-08-23T13:39:13.176Z,2.13
2023-08-23T13:41:40.792Z,1.40
2023-08-23T13:44:08.342Z,1.88
2023-08-23T13:46:35.897Z,3.50
2023-08-23T13:49:03.482Z,2.78
2023-08-23T13:51:30.995Z,1.23
2023-08-23T13:53:59.306Z,1.65
2023-08-23T13:56:26.946Z,1.48
2023-08-23T13:58:55.937Z,1.17
2023-08-23T14:01:25.410Z,1.10
2023-08-23T14:03:53.863Z,1.75
2023-08-23T14:06:21.593Z,1.33
2023-08-23T14:08:49.102Z,1.73
2023-08-23T14:11:16.617Z,1.63
2023-08-23T14:13:44.138Z,2.35
2023-08-23T14:16:11.742Z,1.95
2023-08-23T14:18:39.381Z,1.00
2023-08-23T14:21:06.942Z,2.83
2023-08-23T14:23:34.564Z,2.35
2023-08-23T14:26:05.315Z,1.27
2023-08-23T14:28:32.980Z,1.10
2023-08-23T14:31:00.846Z,1.10
2023-08-23T14:33:28.471Z,1.83
2023-08-23T14:35:56.258Z,2.92
2023-08-23T14:38:23.836Z,1.10
2023-08-23T14:40:51.460Z,2.63
2023-08-23T14:43:18.996Z,1.20
2023-08-23T14:45:46.569Z,1.55
2023-08-23T14:48:14.180Z,2.17
2023-08-23T14:50:41.904Z,1.98
2023-08-23T14:53:09.520Z,1.48
2023-08-23T14:55:38.060Z,1.63
2023-08-23T14:58:06.021Z,1.83
2023-08-23T15:00:34.574Z,2.03
2023-08-23T15:03:04.081Z,2.42
2023-08-23T15:05:31.907Z,3.00
2023-08-23T15:07:59.947Z,1.65
2023-08-23T15:10:27.578Z,1.50
2023-08-23T15:12:55.356Z,2.00
2023-08-23T15:15:22.977Z,1.27
2023-08-23T15:17:50.899Z,1.83
2023-08-23T15:20:18.809Z,1.70
2023-08-23T15:22:46.341Z,1.50
2023-08-23T15:25:14.067Z,1.77
2023-08-23T15:27:44.341Z,1.60
2023-08-23T15:30:14.292Z,3.92
2023-08-23T15:32:42.727Z,2.17
2023-08-23T15:35:11.032Z,1.52
2023-08-23T15:37:39.048Z,2.13
2023-08-23T15:40:07.584Z,1.80
2023-08-23T15:42:35.197Z,1.60
2023-08-23T15:45:02.734Z,1.75
2023-08-23T15:47:30.273Z,1.77
2023-08-23T15:49:57.863Z,1.70
2023-08-23T15:52:25.383Z,2.58
2023-08-23T15:54:53.198Z,2.85
2023-08-23T15:57:21.874Z,3.30
2023-08-23T15:59:49.726Z,1.25
2023-08-23T16:02:17.730Z,1.88
2023-08-23T16:04:45.515Z,1.77
2023-08-23T16:07:13.172Z,1.60
2023-08-23T16:09:40.699Z,1.08
2023-08-23T16:12:08.655Z,1.30
2023-08-23T16:14:41.264Z,2.35
2023-08-23T16:17:08.937Z,2.55
2023-08-23T16:19:36.681Z,1.50
2023-08-23T16:22:04.290Z,2.80
2023-08-23T16:24:32.743Z,1.90
2023-08-23T16:27:00.322Z,2.85
2023-08-23T16:29:27.813Z,2.33
2023-08-23T16:31:55.373Z,1.95
2023-08-23T16:34:22.954Z,2.00
2023-08-23T16:36:50.496Z,3.08
2023-08-23T16:39:18.027Z,4.55
2023-08-23T16:41:45.574Z,1.67
2023-08-23T16:44:13.151Z,2.65
2023-08-23T16:46:40.679Z,1.50
2023-08-23T16:49:08.204Z,3.65
2023-08-23T16:51:35.740Z,1.55
2023-08-23T16:54:04.302Z,3.55
2023-08-23T16:56:31.793Z,4.88
2023-08-23T16:58:59.314Z,3.65
2023-08-23T17:01:26.870Z,5.82
2023-08-23T17:03:54.425Z,4.13
2023-08-23T17:06:21.972Z,6.13
2023-08-23T17:08:49.909Z,5.03
2023-08-23T17:11:17.525Z,5.70
2023-08-23T17:13:45.203Z,5.03
2023-08-23T17:16:12.795Z,6.65
2023-08-23T17:18:40.323Z,4.47
2023-08-23T17:21:07.938Z,5.32
2023-08-23T17:23:35.416Z,4.97
2023-08-23T17:26:03.281Z,13.00
2023-08-23T17:28:30.807Z,7.18
2023-08-23T17:30:59.341Z,7.03
2023-08-23T17:33:27.285Z,6.95
2023-08-23T17:35:54.806Z,9.60
2023-08-23T17:38:22.306Z,9.60
2023-08-23T17:40:49.810Z,7.10
2023-08-23T17:43:17.418Z,9.25
2023-08-23T17:45:45.471Z,16.77
2023-08-23T17:48:12.944Z,15.57
2023-08-23T17:50:40.501Z,13.63
2023-08-23T17:53:08.115Z,24.00
2023-08-23T17:55:35.780Z,20.38
2023-08-23T17:58:03.474Z,21.30
2023-08-23T18:00:31.052Z,17.13
2023-08-23T18:02:58.670Z,12.02
2023-08-23T18:05:29.376Z,9.27
2023-08-23T18:07:56.992Z,8.17
2023-08-23T18:10:24.547Z,4.53
2023-08-23T18:12:52.358Z,10.03
2023-08-23T18:15:20.077Z,19.40
2023-08-23T18:17:47.873Z,15.93
2023-08-23T18:20:15.607Z,11.93
2023-08-23T18:22:43.080Z,11.97
2023-08-23T18:25:14.758Z,11.63
2023-08-23T18:27:42.519Z,8.03
2023-08-23T18:30:10.519Z,8.20
2023-08-23T18:32:38.165Z,14.97
2023-08-23T18:35:06.424Z,10.33
2023-08-23T18:37:33.907Z,6.40
2023-08-23T18:40:01.422Z,5.07
2023-08-23T18:42:29.094Z,3.03
2023-08-23T18:44:56.569Z,6.60
2023-08-23T18:47:24.131Z,5.13
2023-08-23T18:49:52.174Z,7.70
2023-08-23T18:52:20.875Z,4.60
2023-08-23T18:54:48.379Z,11.73
2023-08-23T18:57:17.921Z,5.90
2023-08-23T18:59:46.525Z,6.77
2023-08-23T19:02:14.032Z,7.13
2023-08-23T19:04:41.555Z,6.87
2023-08-23T19:07:09.231Z,7.80
2023-08-23T19:09:36.764Z,9.40
2023-08-23T19:12:04.588Z,13.27
2023-08-23T19:14:33.209Z,24.00
2023-08-23T19:17:00.847Z,23.80
2023-08-23T19:19:29.115Z,11.00
2023-08-23T19:22:00.302Z,8.10
2023-08-23T19:24:31.282Z,4.33
2023-08-23T19:26:58.898Z,10.23
2023-08-23T19:29:26.476Z,6.93
2023-08-23T19:32:12.527Z,8.10
2023-08-23T19:34:40.050Z,7.80
2023-08-23T19:37:08.868Z,6.07
2023-08-23T19:39:36.596Z,7.07
2023-08-23T19:42:04.404Z,10.40
2023-08-23T19:44:32.170Z,6.03
2023-08-23T19:46:59.666Z,6.57
2023-08-23T19:49:27.167Z,5.53
2023-08-23T19:51:54.649Z,5.93
2023-08-23T19:54:22.132Z,8.17
2023-08-23T19:56:49.714Z,9.60
2023-08-23T19:59:17.552Z,10.43
2023-08-23T20:01:45.226Z,5.40
2023-08-23T20:04:12.840Z,5.77
2023-08-23T20:06:40.411Z,9.50
2023-08-23T20:09:07.937Z,5.40
2023-08-23T20:11:35.789Z,7.63
2023-08-23T20:14:03.412Z,6.93
2023-08-23T20:16:31.070Z,7.53
2023-08-23T20:19:01.921Z,8.20
2023-08-23T20:21:29.638Z,7.80
2023-08-23T20:23:57.361Z,7.13
2023-08-23T20:26:24.929Z,9.97
2023-08-23T20:28:52.568Z,8.63
2023-08-23T20:31:20.122Z,6.30
2023-08-23T20:33:47.724Z,9.33
2023-08-23T20:36:15.254Z,9.83
2023-08-23T20:38:42.753Z,10.50
2023-08-23T20:41:10.338Z,10.77
2023-08-23T20:43:39.337Z,12.10
2023-08-23T20:46:06.893Z,18.83
2023-08-23T20:48:34.414Z,9.37
2023-08-23T20:51:02.286Z,12.93
2023-08-23T20:53:34.958Z,8.17
2023-08-23T20:56:03.115Z,10.07
2023-08-23T20:58:30.657Z,11.33
2023-08-23T21:00:59.489Z,12.53
2023-08-23T21:03:27.258Z,9.63
2023-08-23T21:05:56.602Z,12.60
2023-08-23T21:08:24.149Z,18.93
2023-08-23T21:10:51.750Z,24.03
2023-08-23T21:13:19.405Z,23.17
2023-08-23T21:15:48.720Z,11.80
2023-08-23T21:18:17.092Z,6.50
2023-08-23T21:20:45.086Z,8.83
2023-08-23T21:23:13.326Z,9.53
2023-08-23T21:25:40.837Z,6.50
2023-08-23T21:28:08.460Z,8.53
2023-08-23T21:30:36.166Z,7.43
2023-08-23T21:33:04.181Z,7.50
2023-08-23T21:35:31.971Z,8.20
2023-08-23T21:38:00.509Z,5.30
2023-08-23T21:40:28.080Z,9.30
2023-08-23T21:42:56.403Z,6.13
2023-08-23T21:45:23.956Z,5.10
2023-08-23T21:47:51.909Z,8.20
2023-08-23T21:50:20.101Z,5.57
2023-08-23T21:52:48.115Z,6.23
2023-08-23T21:55:15.713Z,3.80
2023-08-23T21:57:43.294Z,3.00
2023-08-23T22:00:13.352Z,4.27
2023-08-23T22:02:41.429Z,5.13
2023-08-23T22:05:09.453Z,7.27
2023-08-23T22:07:37.167Z,4.90
2023-08-23T22:10:05.965Z,5.80
2023-08-23T22:12:33.490Z,3.23
2023-08-23T22:15:01.012Z,4.00
2023-08-23T22:17:28.731Z,4.37
2023-08-23T22:19:56.661Z,6.03
2023-08-23T22:22:24.219Z,4.80
2023-08-23T22:24:51.753Z,4.47
2023-08-23T22:27:19.305Z,3.13
2023-08-23T22:29:46.820Z,4.00
2023-08-23T22:32:14.384Z,4.93
2023-08-23T22:34:41.890Z,6.40
2023-08-23T22:37:09.627Z,6.90
2023-08-23T22:39:37.105Z,4.83
2023-08-23T22:42:04.974Z,5.67
2023-08-23T22:44:32.512Z,4.37
2023-08-23T22:47:00.047Z,7.30
2023-08-23T22:49:27.707Z,8.53
2023-08-23T22:51:55.395Z,7.83
2023-08-23T22:54:22.984Z,8.33
2023-08-23T22:56:50.498Z,5.37
2023-08-23T22:59:18.030Z,6.83
2023-08-23T23:01:45.585Z,6.33
2023-08-23T23:04:13.272Z,7.17
2023-08-23T23:06:40.788Z,8.83
2023-08-23T23:09:08.298Z,8.57
2023-08-23T23:11:36.811Z,9.90
2023-08-23T23:14:04.486Z,7.27
2023-08-23T23:16:32.066Z,5.53
2023-08-23T23:18:59.561Z,10.53
2023-08-23T23:21:27.096Z,5.73
2023-08-23T23:23:54.612Z,4.53
2023-08-23T23:26:22.169Z,4.13
2023-08-23T23:28:49.656Z,3.73
2023-08-23T23:31:17.307Z,5.33
2023-08-23T23:33:45.568Z,8.20
2023-08-23T23:36:13.279Z,9.33
2023-08-23T23:38:44.878Z,4.73
2023-08-23T23:41:12.791Z,5.47
2023-08-23T23:43:43.659Z,6.57
2023-08-23T23:46:11.741Z,6.70
2023-08-23T23:48:39.269Z,5.97
2023-08-23T23:51:06.786Z,5.10
2023-08-23T23:53:34.294Z,6.60
2023-08-23T23:56:01.858Z,5.93
2023-08-23T23:58:29.460Z,5.93
